createdAt,value
2018-12-17T00:01:55.999Z,19.53
2018-12-17T00:04:26.110Z,17.70
2018-12-17T00:06:56.253Z,15.70
2018-12-17T00:09:24.785Z,18.87
2018-12-17T00:11:53.854Z,21.63
2018-12-17T00:14:25.679Z,16.07
2018-12-17T00:16:56.911Z,17.70
2018-12-17T00:19:26.770Z,21.97
2018-12-17T00:21:56.453Z,19.03
2018-12-17T00:24:26.141Z,21.27
2018-12-17T00:26:56.565Z,20.50
2018-12-17T00:29:26.530Z,16.50
2018-12-17T00:31:55.381Z,18.30
2018-12-17T00:34:25.801Z,18.50
2018-12-17T00:36:55.630Z,19.00
2018-12-17T00:39:25.045Z,16.90
2018-12-17T00:41:54.506Z,30.90
2018-12-17T00:44:23.368Z,20.63
2018-12-17T00:46:52.982Z,19.03
2018-12-17T00:49:23.440Z,20.90
2018-12-17T00:51:53.155Z,19.03
2018-12-17T00:54:22.795Z,17.60
2018-12-17T00:56:55.650Z,13.27
2018-12-17T00:59:26.269Z,14.07
2018-12-17T01:01:55.026Z,20.60
2018-12-17T01:04:25.989Z,17.37
2018-12-17T01:06:57.750Z,17.70
2018-12-17T01:09:28.407Z,18.47
2018-12-17T01:11:58.289Z,14.07
2018-12-17T01:14:27.385Z,20.37
2018-12-17T01:16:58.077Z,15.17
2018-12-17T01:19:28.087Z,14.07
2018-12-17T01:21:58.102Z,16.43
2018-12-17T01:24:27.909Z,13.90
2018-12-17T01:26:57.097Z,15.77
2018-12-17T01:29:26.622Z,17.80
2018-12-17T01:31:55.765Z,16.83
2018-12-17T01:34:26.019Z,17.53
2018-12-17T01:38:24.451Z,18.87
2018-12-17T01:40:53.982Z,18.17
2018-12-17T01:43:23.930Z,16.70
2018-12-17T01:45:54.117Z,16.47
2018-12-17T01:48:23.562Z,16.27
2018-12-17T01:50:52.422Z,16.23
2018-12-17T01:53:21.611Z,15.30
2018-12-17T01:55:52.356Z,13.00
2018-12-17T01:58:21.194Z,17.40
2018-12-17T02:00:53.098Z,14.73
2018-12-17T02:03:22.538Z,14.80
2018-12-17T02:05:51.336Z,13.27
2018-12-17T02:08:20.042Z,23.50
2018-12-17T02:10:49.483Z,13.57
2018-12-17T02:13:18.026Z,13.37
2018-12-17T02:15:47.356Z,13.70
2018-12-17T02:18:15.890Z,13.20
2018-12-17T02:20:45.735Z,13.27
2018-12-17T02:23:17.386Z,14.47
2018-12-17T02:25:47.890Z,14.87
2018-12-17T02:28:17.892Z,13.50
2018-12-17T02:30:48.264Z,12.10
2018-12-17T02:41:32.426Z,17.97
2018-12-17T02:44:02.280Z,12.23
2018-12-17T02:46:32.634Z,11.73
2018-12-17T02:49:02.499Z,13.70
2018-12-17T02:51:32.089Z,14.37
2018-12-17T02:54:03.106Z,16.10
2018-12-17T02:56:32.112Z,18.17
2018-12-17T02:59:01.450Z,16.20
2018-12-17T03:01:30.247Z,15.70
2018-12-17T03:04:01.858Z,14.43
2018-12-17T03:06:31.506Z,18.50
2018-12-17T03:09:00.850Z,14.83
2018-12-17T03:11:30.938Z,15.37
2018-12-17T03:14:01.625Z,15.40
2018-12-17T03:16:30.141Z,14.53
2018-12-17T03:18:59.188Z,17.70
2018-12-17T03:21:28.081Z,12.27
2018-12-17T03:23:59.294Z,16.90
2018-12-17T03:26:28.339Z,14.60
2018-12-17T03:28:57.398Z,14.67
2018-12-17T03:31:27.138Z,14.10
2018-12-17T03:33:56.760Z,14.10
2018-12-17T03:36:27.476Z,16.53
2018-12-17T03:38:56.221Z,18.87
2018-12-17T03:41:25.984Z,15.13
2018-12-17T03:43:56.132Z,15.40
2018-12-17T03:46:28.323Z,13.90
2018-12-17T03:48:56.791Z,13.23
2018-12-17T03:51:26.420Z,18.87
2018-12-17T03:53:55.350Z,20.47
2018-12-17T03:56:25.345Z,19.63
2018-12-17T03:58:59.254Z,14.30
2018-12-17T04:01:26.195Z,16.70
2018-12-17T04:03:56.077Z,19.67
2018-12-17T04:06:25.842Z,14.67
2018-12-17T04:08:56.271Z,23.63
2018-12-17T04:11:27.644Z,11.63
2018-12-17T04:13:57.185Z,12.97
2018-12-17T04:16:28.038Z,14.43
2018-12-17T04:18:57.205Z,13.97
2018-12-17T04:21:30.126Z,13.60
2018-12-17T04:23:58.809Z,15.80
2018-12-17T04:26:29.806Z,13.13
2018-12-17T04:29:06.628Z,22.43
2018-12-17T04:31:30.579Z,19.37
2018-12-17T04:33:59.923Z,13.43
2018-12-17T04:36:29.194Z,14.70
2018-12-17T04:38:58.673Z,34.67
2018-12-17T04:41:27.751Z,13.97
2018-12-17T04:43:57.738Z,13.00
2018-12-17T04:46:26.229Z,25.10
2018-12-17T04:49:00.068Z,13.30
2018-12-17T04:51:29.448Z,19.13
2018-12-17T04:53:58.589Z,12.97
2018-12-17T04:56:28.598Z,15.93
2018-12-17T04:58:58.070Z,14.00
2018-12-17T05:01:28.151Z,18.00
2018-12-17T05:03:58.691Z,15.37
2018-12-17T05:06:28.290Z,31.13
2018-12-17T05:08:57.834Z,14.70
2018-12-17T05:11:27.723Z,23.00
2018-12-17T05:13:57.859Z,20.57
2018-12-17T05:16:28.471Z,16.77
2018-12-17T05:18:57.359Z,20.63
2018-12-17T05:21:27.036Z,20.50
2018-12-17T05:23:57.853Z,13.90
2018-12-17T05:26:26.754Z,17.77
2018-12-17T05:28:58.015Z,21.57
2018-12-17T05:31:26.850Z,18.07
2018-12-17T05:33:55.325Z,12.17
2018-12-17T05:36:24.554Z,16.20
2018-12-17T05:38:55.110Z,17.70
2018-12-17T05:41:27.723Z,19.57
2018-12-17T05:43:58.531Z,19.40
2018-12-17T05:46:27.721Z,14.60
2018-12-17T05:48:57.966Z,22.17
2018-12-17T05:51:27.349Z,29.60
2018-12-17T05:53:58.903Z,21.73
2018-12-17T05:56:28.202Z,22.07
2018-12-17T05:58:57.035Z,25.10
2018-12-17T06:01:26.319Z,18.53
2018-12-17T06:04:25.644Z,19.33
2018-12-17T06:06:55.714Z,27.47
2018-12-17T06:09:24.878Z,31.73
2018-12-17T06:11:54.944Z,18.10
2018-12-17T06:14:25.475Z,24.33
2018-12-17T06:17:02.022Z,20.57
2018-12-17T06:19:31.022Z,21.73
2018-12-17T06:22:01.822Z,18.83
2018-12-17T06:24:31.260Z,23.83
2018-12-17T06:27:01.229Z,24.20
2018-12-17T06:29:35.509Z,21.63
2018-12-17T06:32:02.372Z,23.10
2018-12-17T06:34:31.026Z,17.83
2018-12-17T06:37:00.915Z,23.70
2018-12-17T06:39:32.498Z,25.73
2018-12-17T06:42:01.671Z,28.30
2018-12-17T06:44:31.804Z,22.50
2018-12-17T06:47:02.760Z,17.10
2018-12-17T06:49:32.435Z,22.10
2018-12-17T06:52:02.433Z,19.93
2018-12-17T06:54:34.079Z,23.03
2018-12-17T06:57:03.538Z,22.67
2018-12-17T06:59:32.652Z,17.00
2018-12-17T07:02:04.099Z,17.93
2018-12-17T07:04:33.145Z,16.30
2018-12-17T07:07:03.646Z,19.70
2018-12-17T07:10:04.036Z,20.00
2018-12-17T07:12:32.862Z,15.90
2018-12-17T07:15:02.678Z,13.00
2018-12-17T07:17:33.053Z,17.00
2018-12-17T07:20:01.651Z,13.30
2018-12-17T07:29:33.402Z,13.07
2018-12-17T07:32:03.406Z,12.07
2018-12-17T07:34:35.014Z,13.13
2018-12-17T07:37:07.818Z,14.70
2018-12-17T07:39:37.649Z,12.30
2018-12-17T07:42:07.612Z,18.13
2018-12-17T07:44:38.305Z,16.77
2018-12-17T07:47:09.727Z,11.10
2018-12-17T07:49:39.428Z,11.63
2018-12-17T07:52:10.479Z,15.93
2018-12-17T07:54:41.017Z,11.87
2018-12-17T07:57:10.790Z,10.00
2018-12-17T07:59:56.881Z,10.60
2018-12-17T08:02:27.070Z,11.83
2018-12-17T08:04:56.769Z,9.90
2018-12-17T08:07:25.521Z,11.33
2018-12-17T08:09:56.289Z,13.33
2018-12-17T08:12:26.872Z,13.23
2018-12-17T08:14:56.069Z,10.30
2018-12-17T08:17:24.614Z,11.77
2018-12-17T08:19:53.555Z,10.03
2018-12-17T08:22:26.283Z,15.80
2018-12-17T08:24:55.680Z,11.20
2018-12-17T08:27:25.911Z,17.33
2018-12-17T08:29:55.452Z,12.47
2018-12-17T08:32:25.975Z,13.77
2018-12-17T08:34:57.022Z,9.97
2018-12-17T08:37:25.781Z,12.30
2018-12-17T08:39:55.724Z,10.23
2018-12-17T08:42:25.880Z,12.53
2018-12-17T08:44:55.127Z,13.27
2018-12-17T08:47:24.771Z,11.40
2018-12-17T08:49:53.940Z,13.67
2018-12-17T08:52:23.658Z,13.63
2018-12-17T08:54:54.554Z,12.03
2018-12-17T08:57:23.481Z,10.10
2018-12-17T08:59:53.187Z,9.53
2018-12-17T09:02:22.884Z,11.47
2018-12-17T09:04:53.452Z,13.50
2018-12-17T09:07:22.733Z,14.10
2018-12-17T09:09:54.042Z,11.10
2018-12-17T09:12:23.337Z,12.80
2018-12-17T09:14:52.031Z,12.23
2018-12-17T09:17:22.627Z,10.57
2018-12-17T09:19:53.045Z,9.30
2018-12-17T09:22:22.322Z,21.27
2018-12-17T09:24:52.429Z,10.40
2018-12-17T09:27:24.592Z,7.63
2018-12-17T09:29:53.896Z,9.67
2018-12-17T09:32:25.923Z,8.37
2018-12-17T09:34:55.730Z,14.40
2018-12-17T09:37:24.999Z,10.10
2018-12-17T09:39:54.411Z,15.57
2018-12-17T09:42:23.561Z,10.30
2018-12-17T09:44:54.425Z,10.63
2018-12-17T09:47:24.998Z,9.00
2018-12-17T09:49:56.461Z,9.87
2018-12-17T09:52:34.652Z,9.37
2018-12-17T09:59:40.378Z,17.53
2018-12-17T10:02:11.110Z,9.23
2018-12-17T10:04:40.526Z,14.67
2018-12-17T10:07:10.023Z,12.73
2018-12-17T10:09:39.932Z,10.80
2018-12-17T10:12:09.433Z,14.47
2018-12-17T10:14:39.451Z,10.40
2018-12-17T10:17:09.162Z,9.00
2018-12-17T10:19:40.229Z,16.10
2018-12-17T10:22:09.254Z,7.73
2018-12-17T10:24:38.706Z,11.30
2018-12-17T10:27:08.864Z,14.90
2018-12-17T10:29:38.164Z,12.87
2018-12-17T10:32:09.478Z,9.07
2018-12-17T10:34:37.977Z,9.10
2018-12-17T10:37:08.334Z,12.60
2018-12-17T10:39:38.384Z,12.70
2018-12-17T10:42:08.068Z,12.80
2018-12-17T10:44:37.475Z,11.33
2018-12-17T10:47:06.555Z,11.47
2018-12-17T10:49:36.657Z,11.50
2018-12-17T10:52:05.403Z,10.77
2018-12-17T10:54:34.146Z,12.13
2018-12-17T10:57:06.555Z,13.20
2018-12-17T10:59:35.162Z,7.07
2018-12-17T11:02:11.626Z,8.80
2018-12-17T11:04:47.665Z,9.93
2018-12-17T11:07:16.829Z,8.27
2018-12-17T11:09:47.903Z,6.60
2018-12-17T11:12:20.422Z,8.57
2018-12-17T11:14:50.990Z,11.60
2018-12-17T11:17:20.288Z,8.80
2018-12-17T11:19:49.358Z,8.40
2018-12-17T11:22:19.321Z,9.50
2018-12-17T11:24:49.375Z,11.03
2018-12-17T11:27:18.512Z,20.93
2018-12-17T11:29:48.852Z,9.37
2018-12-17T11:32:18.125Z,9.87
2018-12-17T11:34:47.518Z,6.83
2018-12-17T11:37:16.081Z,5.80
2018-12-17T11:39:44.622Z,8.10
2018-12-17T11:42:14.903Z,7.90
2018-12-17T11:44:43.845Z,11.90
2018-12-17T11:47:14.722Z,8.00
2018-12-17T11:49:44.827Z,9.50
2018-12-17T11:52:13.492Z,7.03
2018-12-17T11:54:45.710Z,8.13
2018-12-17T11:57:55.330Z,6.83
2018-12-17T12:00:28.498Z,9.27
2018-12-17T12:02:59.262Z,8.23
2018-12-17T12:05:28.357Z,6.50
2018-12-17T12:07:57.943Z,6.47
2018-12-17T12:10:26.485Z,10.70
2018-12-17T12:12:56.154Z,3.70
2018-12-17T12:15:25.748Z,5.60
2018-12-17T12:17:55.653Z,4.50
2018-12-17T12:20:27.627Z,4.50
2018-12-17T12:22:59.781Z,5.13
2018-12-17T12:25:30.278Z,6.27
2018-12-17T12:28:03.269Z,12.63
2018-12-17T12:30:31.892Z,6.97
2018-12-17T12:33:00.520Z,6.10
2018-12-17T12:35:29.280Z,5.67
2018-12-17T12:37:59.029Z,5.60
2018-12-17T12:40:28.578Z,6.07
2018-12-17T12:42:58.425Z,4.63
2018-12-17T12:45:29.291Z,8.03
2018-12-17T12:47:59.102Z,6.57
2018-12-17T12:50:28.509Z,3.60
2018-12-17T12:52:59.138Z,4.47
2018-12-17T12:55:29.354Z,7.20
2018-12-17T12:58:03.551Z,5.17
2018-12-17T13:00:29.639Z,8.20
2018-12-17T13:02:58.222Z,6.90
2018-12-17T13:05:29.348Z,6.97
2018-12-17T13:07:59.008Z,4.60
2018-12-17T13:10:27.860Z,5.20
2018-12-17T13:12:57.548Z,6.30
2018-12-17T13:15:27.358Z,5.80
2018-12-17T13:17:57.051Z,5.50
2018-12-17T13:20:25.911Z,4.83
2018-12-17T13:22:57.255Z,9.70
2018-12-17T13:25:30.577Z,7.50
2018-12-17T13:28:01.373Z,6.60
2018-12-17T13:30:31.486Z,5.53
2018-12-17T13:33:01.452Z,5.77
2018-12-17T13:35:30.040Z,5.13
2018-12-17T13:37:59.263Z,3.57
2018-12-17T13:40:29.013Z,4.10
2018-12-17T13:42:57.872Z,6.57
2018-12-17T13:45:28.407Z,4.53
2018-12-17T13:47:57.951Z,4.80
2018-12-17T13:50:32.090Z,4.00
2018-12-17T13:53:06.529Z,4.27
2018-12-17T13:55:36.106Z,6.60
2018-12-17T13:58:07.349Z,4.53
2018-12-17T14:00:36.314Z,3.77
2018-12-17T14:03:05.825Z,4.23
2018-12-17T14:05:35.549Z,3.80
2018-12-17T14:08:05.774Z,2.57
2018-12-17T14:10:40.532Z,3.80
2018-12-17T14:13:10.076Z,3.20
2018-12-17T14:15:44.290Z,1.73
2018-12-17T14:18:18.793Z,4.53
2018-12-17T14:20:54.690Z,2.60
2018-12-17T14:23:23.719Z,3.20
2018-12-17T14:25:54.070Z,2.63
2018-12-17T14:28:24.326Z,3.77
2018-12-17T14:30:55.672Z,5.93
2018-12-17T14:33:25.223Z,2.10
2018-12-17T14:35:59.149Z,2.80
2018-12-17T14:38:28.143Z,2.70
2018-12-17T14:40:58.974Z,2.80
2018-12-17T14:43:30.156Z,2.83
2018-12-17T14:46:00.408Z,3.70
2018-12-17T14:48:29.361Z,5.03
2018-12-17T14:50:59.215Z,5.43
2018-12-17T14:53:27.734Z,5.20
2018-12-17T14:55:56.789Z,3.17
2018-12-17T14:58:25.906Z,6.20
2018-12-17T15:00:56.226Z,3.13
2018-12-17T15:03:26.253Z,4.30
